Terminal Aerodrome Forecast
Issued by NWS Wilmington, OH

Current Version | Previous Version | Text Only | Print | Product List | Glossary Off
Versions: 1 2 3 4 5 6 7 8 9 10 11 12 13 14 15 16 17 18 19 20 21 22

526
FTUS41 KILN 171544 AAA
TAFCVG
TAF AMD
KCVG 171544Z 1716/1818 35003KT P6SM FEW050
     FM171700 34006KT P6SM VCSH SCT050
     FM172100 34005KT P6SM SCT050
     FM180000 VRB03KT P6SM SCT250
     FM180800 VRB03KT 5SM BR SCT250
     FM181300 21005KT P6SM SCT050=

USA.gov is the U.S. government's official web portal to all federal, state and local government web resources and services.